KBIJ

Early County Airport

Blakely, Georgia, USA
METAR KBIJ 201935Z AUTO 28005KT 10SM CLR 28/18 A2996 RMK AO2
Observed Flight Rules
Oct-20 @ 19:35 UTC (30 minutes ago) Visual Flight Rules
Wind Visibility Clouds
280° at 5 knots 10 miles
  • Clear skies
Temperatures Readings
Current 28°C / 82°F
Dewpoint 18°C / 64°F
Humidity 55%
Altimeter 29.96" Hg
Pressure 1015 hPa
Elevation 65
METAR KBIJ 201935Z AUTO 28005KT 10SM CLR 28/18 A2996 RMK AO2
Observed Flight Rules
Oct-20 @ 19:35 UTC
(30 minutes ago)
VFR
Wind Visibility
280° at 5 knots 10 miles
Clouds
  • Clear skies
Temperature Dewpoint
28°C / 82°F 18°C / 64°F
Humidity Altimeter Pressure
55% 29.96" Hg 1015 hPa